createdAt,value
2017-10-23T00:01:38.733Z,99.60
2017-10-23T00:04:06.220Z,99.90
2017-10-23T00:06:37.160Z,99.90
2017-10-23T00:09:05.601Z,99.90
2017-10-23T00:11:33.189Z,99.90
2017-10-23T00:14:01.103Z,99.90
2017-10-23T00:16:28.767Z,99.90
2017-10-23T00:18:56.321Z,99.90
2017-10-23T00:21:23.803Z,99.90
2017-10-23T00:23:51.408Z,99.90
2017-10-23T00:26:19.751Z,99.90
2017-10-23T00:28:47.423Z,99.90
2017-10-23T00:31:15.013Z,99.90
2017-10-23T00:33:43.563Z,99.90
2017-10-23T00:36:11.400Z,99.90
2017-10-23T00:38:38.943Z,99.90
2017-10-23T00:41:06.522Z,99.90
2017-10-23T00:43:34.085Z,99.90
2017-10-23T00:46:01.619Z,99.90
2017-10-23T00:48:29.857Z,99.90
2017-10-23T00:50:57.341Z,99.90
2017-10-23T00:53:25.590Z,99.90
2017-10-23T00:55:53.078Z,99.90
2017-10-23T00:58:21.323Z,99.90
2017-10-23T01:00:48.807Z,99.90
2017-10-23T01:03:16.288Z,99.90
2017-10-23T01:05:44.535Z,99.90
2017-10-23T01:08:12.013Z,99.90
2017-10-23T01:10:40.258Z,99.90
2017-10-23T01:13:07.737Z,99.90
2017-10-23T01:15:35.223Z,99.90
2017-10-23T01:18:02.742Z,99.90
2017-10-23T01:20:30.214Z,99.90
2017-10-23T01:22:57.694Z,99.90
2017-10-23T01:25:25.944Z,99.90
2017-10-23T01:27:54.198Z,99.90
2017-10-23T01:30:21.691Z,99.90
2017-10-23T01:32:49.942Z,99.90
2017-10-23T01:35:17.439Z,99.90
2017-10-23T01:37:45.692Z,99.90
2017-10-23T01:40:13.176Z,99.90
2017-10-23T01:42:41.440Z,99.90
2017-10-23T01:45:09.695Z,99.90
2017-10-23T01:47:37.175Z,99.90
2017-10-23T01:50:04.655Z,99.90
2017-10-23T01:52:32.141Z,99.90
2017-10-23T01:54:59.631Z,99.90
2017-10-23T01:57:27.127Z,99.90
2017-10-23T01:59:55.370Z,99.90
2017-10-23T02:02:22.844Z,99.90
2017-10-23T02:04:52.090Z,99.90
2017-10-23T02:07:19.567Z,99.90
2017-10-23T02:09:47.053Z,99.90
2017-10-23T02:12:14.536Z,99.90
2017-10-23T02:14:42.082Z,99.90
2017-10-23T02:17:10.317Z,99.90
2017-10-23T02:19:37.804Z,99.90
2017-10-23T02:22:06.051Z,99.90
2017-10-23T02:24:33.535Z,99.90
2017-10-23T02:27:01.044Z,99.90
2017-10-23T02:29:28.531Z,99.90
2017-10-23T02:31:56.014Z,99.90
2017-10-23T02:34:23.498Z,99.90
2017-10-23T02:36:51.766Z,99.90
2017-10-23T02:39:20.011Z,99.90
2017-10-23T02:41:47.760Z,99.90
2017-10-23T02:44:15.243Z,99.90
2017-10-23T02:46:42.932Z,99.90
2017-10-23T02:49:11.175Z,99.90
2017-10-23T02:51:38.647Z,99.90
2017-10-23T02:54:06.136Z,99.90
2017-10-23T02:56:34.405Z,99.90
2017-10-23T02:59:02.646Z,99.90
2017-10-23T03:01:30.119Z,99.90
2017-10-23T03:03:59.101Z,99.90
2017-10-23T03:06:26.586Z,99.90
2017-10-23T03:08:54.058Z,99.90
2017-10-23T03:11:22.307Z,99.90
2017-10-23T03:13:49.791Z,99.90
2017-10-23T03:16:18.038Z,99.90
2017-10-23T03:18:45.519Z,99.90
2017-10-23T03:21:13.767Z,99.90
2017-10-23T03:23:41.251Z,99.90
2017-10-23T03:26:08.740Z,99.90
2017-10-23T03:28:36.223Z,99.90
2017-10-23T03:31:03.704Z,99.90
2017-10-23T03:33:31.193Z,99.90
2017-10-23T03:35:59.451Z,99.50
2017-10-23T03:38:26.929Z,99.40
2017-10-23T03:40:55.183Z,99.90
2017-10-23T03:43:22.671Z,99.80
2017-10-23T03:45:50.916Z,99.90
2017-10-23T03:48:18.395Z,99.90
2017-10-23T03:50:46.636Z,99.90
2017-10-23T03:53:14.130Z,99.90
2017-10-23T03:55:42.380Z,99.90
2017-10-23T03:58:09.880Z,99.90
2017-10-23T04:00:38.125Z,99.90
2017-10-23T04:03:05.595Z,99.90
2017-10-23T04:05:33.107Z,99.90
2017-10-23T04:08:00.592Z,99.70
2017-10-23T04:10:28.071Z,99.90
2017-10-23T04:12:55.562Z,99.90
2017-10-23T04:15:23.042Z,99.90
2017-10-23T04:17:50.522Z,99.90
2017-10-23T04:20:17.997Z,99.90
2017-10-23T04:22:45.474Z,99.90
2017-10-23T04:25:13.711Z,99.90
2017-10-23T04:27:41.209Z,99.90
2017-10-23T04:30:08.689Z,99.90
2017-10-23T04:32:36.169Z,99.90
2017-10-23T04:35:03.656Z,99.90
2017-10-23T04:37:31.143Z,99.90
2017-10-23T04:39:58.627Z,99.80
2017-10-23T04:42:26.110Z,99.90
2017-10-23T04:44:53.590Z,99.70
2017-10-23T04:47:21.078Z,99.60
2017-10-23T04:49:48.580Z,99.50
2017-10-23T04:52:16.064Z,99.40
2017-10-23T04:54:43.558Z,99.00
2017-10-23T04:57:11.837Z,98.30
2017-10-23T04:59:40.090Z,96.60
2017-10-23T05:02:07.574Z,96.20
2017-10-23T05:04:35.822Z,96.70
2017-10-23T05:07:03.308Z,96.20
2017-10-23T05:09:31.551Z,95.70
2017-10-23T05:11:59.035Z,95.60
2017-10-23T05:14:26.513Z,95.80
2017-10-23T05:16:54.764Z,96.30
2017-10-23T05:19:22.256Z,96.30
2017-10-23T05:21:50.506Z,97.00
2017-10-23T05:24:17.988Z,97.00
2017-10-23T05:26:45.468Z,96.90
2017-10-23T05:29:13.927Z,97.30
2017-10-23T05:31:42.171Z,98.50
2017-10-23T05:34:09.649Z,98.50
2017-10-23T05:36:37.903Z,98.40
2017-10-23T05:39:05.388Z,98.40
2017-10-23T05:41:33.645Z,98.20
2017-10-23T05:44:01.135Z,98.10
2017-10-23T05:46:29.388Z,97.70
2017-10-23T05:48:56.871Z,97.70
2017-10-23T05:51:25.126Z,97.50
2017-10-23T05:53:52.627Z,97.50
2017-10-23T05:56:20.107Z,97.20
2017-10-23T05:58:47.588Z,96.60
2017-10-23T06:01:15.085Z,95.40
2017-10-23T06:03:43.331Z,94.30
2017-10-23T06:06:10.815Z,94.20
2017-10-23T06:08:39.061Z,93.60
2017-10-23T06:11:06.540Z,93.60
2017-10-23T06:13:34.799Z,90.80
2017-10-23T06:16:02.279Z,90.70
2017-10-23T06:18:30.535Z,89.10
2017-10-23T06:20:58.033Z,89.10
2017-10-23T06:23:25.519Z,86.50
2017-10-23T06:25:53.005Z,85.80
2017-10-23T06:28:20.489Z,86.50
2017-10-23T06:30:48.735Z,85.90
2017-10-23T06:33:16.214Z,85.10
2017-10-23T06:35:43.694Z,84.40
2017-10-23T06:38:11.944Z,79.50
2017-10-23T06:40:39.434Z,78.90
2017-10-23T06:43:07.674Z,73.70
2017-10-23T06:45:35.154Z,73.60
2017-10-23T06:48:02.630Z,70.30
2017-10-23T06:50:30.887Z,67.10
2017-10-23T06:52:58.376Z,67.10
2017-10-23T06:55:25.876Z,66.40
2017-10-23T06:57:53.368Z,71.30
2017-10-23T07:00:21.625Z,67.90
2017-10-23T07:02:49.119Z,67.80
2017-10-23T07:05:17.382Z,72.30
2017-10-23T07:07:45.626Z,70.10
2017-10-23T07:10:13.104Z,69.70
2017-10-23T07:12:40.587Z,77.40
2017-10-23T07:15:08.827Z,64.10
2017-10-23T07:17:36.310Z,63.90
2017-10-23T07:20:04.568Z,62.50
2017-10-23T07:22:32.045Z,62.30
2017-10-23T07:25:00.304Z,60.60
2017-10-23T07:27:27.778Z,61.00
2017-10-23T07:29:56.041Z,59.10
2017-10-23T07:32:23.535Z,59.00
2017-10-23T07:34:51.799Z,82.40
2017-10-23T07:37:20.060Z,66.20
2017-10-23T07:39:47.542Z,66.70
2017-10-23T07:42:15.774Z,59.50
2017-10-23T07:44:43.307Z,59.40
2017-10-23T07:47:10.792Z,60.10
2017-10-23T07:49:38.274Z,86.40
2017-10-23T07:52:05.765Z,62.20
2017-10-23T07:54:33.249Z,62.50
2017-10-23T07:57:00.797Z,69.20
2017-10-23T07:59:28.274Z,76.50
2017-10-23T08:01:55.755Z,72.70
2017-10-23T08:04:23.229Z,61.20
2017-10-23T08:06:50.702Z,57.10
2017-10-23T08:09:18.947Z,58.00
2017-10-23T08:11:46.435Z,57.80
2017-10-23T08:14:14.692Z,58.20
2017-10-23T08:16:42.171Z,57.80
2017-10-23T08:19:10.438Z,53.90
2017-10-23T08:21:39.437Z,55.50
2017-10-23T08:24:07.687Z,54.30
2017-10-23T08:26:35.175Z,54.20
2017-10-23T08:29:03.417Z,52.30
2017-10-23T08:31:30.909Z,52.30
2017-10-23T08:33:59.203Z,52.90
2017-10-23T08:36:27.446Z,52.40
2017-10-23T08:38:54.917Z,52.40
2017-10-23T08:41:22.414Z,52.50
2017-10-23T08:43:49.889Z,53.00
2017-10-23T08:46:17.372Z,52.80
2017-10-23T08:48:44.858Z,51.80
2017-10-23T08:51:13.120Z,53.80
2017-10-23T08:53:40.615Z,53.60
2017-10-23T08:56:08.107Z,52.40
2017-10-23T08:58:35.610Z,51.60
2017-10-23T09:01:03.094Z,56.70
2017-10-23T09:03:30.582Z,50.00
2017-10-23T09:05:58.072Z,47.40
2017-10-23T09:08:25.563Z,48.80
2017-10-23T09:10:53.806Z,48.10
2017-10-23T09:13:21.273Z,48.30
2017-10-23T09:15:48.766Z,48.10
2017-10-23T09:18:16.257Z,49.30
2017-10-23T09:20:43.739Z,49.30
2017-10-23T09:23:11.225Z,49.20
2017-10-23T09:25:39.479Z,50.90
2017-10-23T09:28:06.972Z,50.70
2017-10-23T09:30:34.464Z,52.60
2017-10-23T09:33:01.937Z,50.90
2017-10-23T09:35:29.571Z,51.20
2017-10-23T09:37:57.906Z,54.70
2017-10-23T09:40:25.391Z,54.50
2017-10-23T09:42:53.634Z,55.10
2017-10-23T09:45:21.137Z,55.00
2017-10-23T09:47:48.628Z,48.70
2017-10-23T09:50:16.130Z,50.10
2017-10-23T09:52:44.384Z,50.00
2017-10-23T09:55:11.861Z,50.00
2017-10-23T09:57:39.346Z,51.10
2017-10-23T10:00:06.822Z,49.40
2017-10-23T10:02:34.311Z,48.90
2017-10-23T10:05:01.803Z,50.40
2017-10-23T10:07:30.042Z,51.70
2017-10-23T10:09:57.532Z,51.40
2017-10-23T10:12:25.033Z,48.50
2017-10-23T10:14:52.517Z,46.30
2017-10-23T10:17:20.002Z,47.80
2017-10-23T10:19:47.496Z,49.50
2017-10-23T10:22:14.980Z,46.90
2017-10-23T10:24:42.467Z,49.90
2017-10-23T10:27:09.958Z,52.20
2017-10-23T10:29:38.202Z,49.50
2017-10-23T10:32:05.681Z,49.20
2017-10-23T10:34:33.921Z,49.20
2017-10-23T10:37:01.408Z,48.70
2017-10-23T10:39:28.892Z,48.40
2017-10-23T10:41:56.371Z,49.70
2017-10-23T10:44:23.859Z,47.10
2017-10-23T10:46:51.347Z,47.70
2017-10-23T10:49:18.825Z,46.10
2017-10-23T10:51:47.079Z,47.00
2017-10-23T10:54:14.584Z,46.90
2017-10-23T10:56:42.072Z,49.60
2017-10-23T10:59:09.559Z,47.60
2017-10-23T11:01:59.606Z,48.60
2017-10-23T11:04:27.112Z,48.40
2017-10-23T11:06:55.370Z,50.50
2017-10-23T11:09:22.858Z,50.40
2017-10-23T11:11:51.102Z,51.30
2017-10-23T11:14:18.582Z,51.00
2017-10-23T11:16:46.069Z,47.00
2017-10-23T11:19:13.543Z,50.30
2017-10-23T11:21:41.027Z,48.20
2017-10-23T11:24:08.515Z,47.10
2017-10-23T11:26:36.776Z,48.20
2017-10-23T11:29:04.272Z,47.70
2017-10-23T11:31:32.509Z,45.80
2017-10-23T11:33:59.996Z,45.80
2017-10-23T11:36:28.246Z,47.40
2017-10-23T11:38:55.721Z,47.40
2017-10-23T11:41:23.207Z,47.40
2017-10-23T11:43:51.451Z,49.60
2017-10-23T11:46:18.985Z,49.50
2017-10-23T11:48:46.454Z,52.40
2017-10-23T11:51:13.941Z,48.50
2017-10-23T11:53:42.221Z,48.70
2017-10-23T11:56:10.478Z,49.20
2017-10-23T11:58:38.731Z,47.50
2017-10-23T12:01:06.210Z,47.40
2017-10-23T12:03:33.704Z,47.80
2017-10-23T12:06:01.958Z,46.10
2017-10-23T12:08:29.437Z,46.00
2017-10-23T12:10:57.694Z,44.00
2017-10-23T12:13:25.180Z,43.90
2017-10-23T12:15:53.433Z,44.80
2017-10-23T12:18:20.910Z,44.90
2017-10-23T12:20:49.157Z,44.00
2017-10-23T12:23:16.672Z,43.90
2017-10-23T12:25:44.166Z,52.10
2017-10-23T12:28:11.650Z,49.70
2017-10-23T12:30:39.943Z,50.40
2017-10-23T12:33:08.182Z,44.80
2017-10-23T12:35:35.658Z,44.80
2017-10-23T12:38:03.141Z,41.70
2017-10-23T12:40:31.385Z,52.20
2017-10-23T12:42:58.872Z,52.10
2017-10-23T12:45:27.119Z,51.60
2017-10-23T12:47:54.612Z,51.70
2017-10-23T12:50:22.853Z,48.30
2017-10-23T12:52:50.340Z,48.60
2017-10-23T12:55:18.591Z,44.50
2017-10-23T12:57:46.083Z,44.30
2017-10-23T13:00:14.326Z,41.70
2017-10-23T13:02:41.822Z,41.50
2017-10-23T13:05:09.312Z,48.30
2017-10-23T13:07:36.799Z,44.80
2017-10-23T13:10:04.278Z,43.30
2017-10-23T13:12:32.535Z,48.50
2017-10-23T13:15:00.015Z,47.90
2017-10-23T13:17:28.265Z,43.60
2017-10-23T13:19:55.752Z,43.90
2017-10-23T13:22:23.998Z,50.20
2017-10-23T13:24:51.494Z,50.30
2017-10-23T13:27:19.749Z,44.70
2017-10-23T13:29:47.231Z,44.70
2017-10-23T13:32:15.487Z,46.20
2017-10-23T13:34:42.961Z,46.10
2017-10-23T13:37:11.206Z,48.20
2017-10-23T13:39:38.691Z,48.40
2017-10-23T13:42:06.965Z,44.00
2017-10-23T13:44:35.289Z,43.20
2017-10-23T13:47:02.778Z,42.90
2017-10-23T13:49:30.267Z,43.50
2017-10-23T13:51:58.519Z,44.40
2017-10-23T13:54:26.004Z,44.40
2017-10-23T13:56:54.259Z,48.60
2017-10-23T13:59:21.734Z,48.40
2017-10-23T14:01:50.004Z,42.30
2017-10-23T14:04:17.495Z,42.30
2017-10-23T14:06:44.987Z,46.20
2017-10-23T14:09:12.475Z,44.60
2017-10-23T14:11:41.459Z,47.10
2017-10-23T14:14:08.942Z,47.00
2017-10-23T14:16:37.198Z,45.70
2017-10-23T14:19:04.687Z,45.50
2017-10-23T14:21:32.920Z,44.80
2017-10-23T14:24:00.402Z,44.80
2017-10-23T14:26:27.899Z,51.10
2017-10-23T14:28:55.377Z,51.00
2017-10-23T14:31:22.859Z,53.20
2017-10-23T14:33:50.355Z,49.50
2017-10-23T14:36:18.597Z,46.30
2017-10-23T14:38:46.088Z,46.40
2017-10-23T14:41:14.344Z,49.80
2017-10-23T14:43:41.816Z,49.90
2017-10-23T14:46:09.293Z,43.90
2017-10-23T14:48:37.538Z,51.90
2017-10-23T14:51:05.022Z,51.90
2017-10-23T14:53:33.344Z,42.80
2017-10-23T14:56:00.857Z,42.90
2017-10-23T14:58:29.097Z,41.70
2017-10-23T15:00:56.597Z,41.60
2017-10-23T15:03:24.871Z,44.50
2017-10-23T15:05:53.120Z,43.60
2017-10-23T15:08:20.600Z,43.50
2017-10-23T15:10:48.849Z,43.30
2017-10-23T15:13:16.326Z,42.30
2017-10-23T15:15:44.566Z,46.20
2017-10-23T15:18:12.054Z,46.40
2017-10-23T15:20:40.911Z,43.00
2017-10-23T15:23:09.427Z,44.50
2017-10-23T15:25:41.296Z,42.90
2017-10-23T15:28:10.254Z,47.20
2017-10-23T15:30:38.520Z,47.10
2017-10-23T15:33:06.019Z,48.50
2017-10-23T15:35:33.872Z,52.10
2017-10-23T15:38:03.014Z,54.90
2017-10-23T15:40:31.730Z,46.80
2017-10-23T15:42:59.647Z,46.80
2017-10-23T15:45:28.398Z,54.80
2017-10-23T15:47:56.224Z,48.30
2017-10-23T15:50:25.028Z,52.40
2017-10-23T15:52:53.052Z,52.30
2017-10-23T15:55:21.888Z,49.00
2017-10-23T15:57:51.114Z,51.60
2017-10-23T16:00:21.003Z,48.90
2017-10-23T16:02:50.120Z,52.70
2017-10-23T16:05:17.619Z,52.50
2017-10-23T16:07:45.123Z,50.80
2017-10-23T16:10:12.631Z,50.30
2017-10-23T16:12:45.364Z,51.00
2017-10-23T16:15:13.589Z,54.10
2017-10-23T16:17:42.535Z,53.50
2017-10-23T16:20:10.324Z,53.40
2017-10-23T16:22:38.453Z,51.70
2017-10-23T16:25:07.279Z,52.70
2017-10-23T16:27:35.475Z,52.70
2017-10-23T16:30:02.951Z,52.30
2017-10-23T16:32:30.454Z,52.10
2017-10-23T16:34:59.209Z,51.80
2017-10-23T16:37:27.951Z,51.80
2017-10-23T16:39:57.110Z,52.00
2017-10-23T16:42:26.516Z,51.50
2017-10-23T16:44:55.689Z,52.00
2017-10-23T16:47:23.171Z,51.90
2017-10-23T16:49:51.426Z,52.00
2017-10-23T16:52:19.692Z,52.60
2017-10-23T16:54:47.731Z,52.60
2017-10-23T16:57:15.466Z,52.40
2017-10-23T16:59:43.721Z,53.20
2017-10-23T17:02:11.199Z,52.90
2017-10-23T17:04:39.464Z,54.10
2017-10-23T17:07:06.951Z,54.00
2017-10-23T17:09:35.202Z,53.50
2017-10-23T17:12:13.575Z,54.10
2017-10-23T17:14:41.050Z,53.70
2017-10-23T17:17:08.547Z,53.20
2017-10-23T17:19:36.811Z,54.40
2017-10-23T17:22:05.070Z,53.90
2017-10-23T17:24:32.554Z,53.70
2017-10-23T17:27:00.800Z,54.40
2017-10-23T17:29:28.299Z,54.30
2017-10-23T17:31:56.547Z,55.80
2017-10-23T17:34:24.042Z,55.70
2017-10-23T17:36:52.295Z,57.80
2017-10-23T17:39:19.774Z,57.70
2017-10-23T17:41:47.284Z,58.90
2017-10-23T17:44:14.764Z,57.40
2017-10-23T17:46:42.259Z,57.20
2017-10-23T17:49:09.750Z,57.60
2017-10-23T17:51:37.242Z,57.60
2017-10-23T17:54:04.747Z,57.70
2017-10-23T17:56:32.247Z,58.00
2017-10-23T17:58:59.733Z,58.20
2017-10-23T18:01:27.998Z,57.40
2017-10-23T18:03:55.477Z,56.80
2017-10-23T18:06:23.732Z,57.90
2017-10-23T18:08:51.228Z,57.80
2017-10-23T18:11:18.721Z,57.70
2017-10-23T18:13:46.207Z,57.60
2017-10-23T18:16:13.714Z,57.40
2017-10-23T18:18:41.207Z,58.20
2017-10-23T18:21:08.703Z,58.30
2017-10-23T18:23:36.983Z,63.80
2017-10-23T18:26:05.243Z,58.40
2017-10-23T18:28:32.744Z,58.40
2017-10-23T18:31:00.259Z,58.00
2017-10-23T18:33:28.208Z,62.60
2017-10-23T18:35:55.694Z,58.90
2017-10-23T18:38:23.190Z,58.30
2017-10-23T18:40:50.699Z,59.10
2017-10-23T18:43:18.193Z,60.40
2017-10-23T18:45:46.451Z,58.70
2017-10-23T18:48:13.949Z,58.60
2017-10-23T18:50:41.430Z,62.00
2017-10-23T18:53:08.920Z,58.70
2017-10-23T18:55:36.407Z,58.70
2017-10-23T18:58:04.675Z,58.90
2017-10-23T19:00:32.932Z,59.00
2017-10-23T19:03:00.413Z,59.10
2017-10-23T19:05:28.657Z,58.60
2017-10-23T19:07:56.150Z,58.50
2017-10-23T19:10:24.385Z,58.80
2017-10-23T19:12:51.863Z,58.70
2017-10-23T19:15:19.350Z,60.00
2017-10-23T19:17:47.589Z,60.10
2017-10-23T19:20:15.067Z,60.10
2017-10-23T19:22:42.598Z,60.40
2017-10-23T19:25:10.083Z,61.00
2017-10-23T19:27:37.553Z,60.40
2017-10-23T19:30:05.815Z,61.10
2017-10-23T19:32:33.297Z,61.10
2017-10-23T19:35:01.553Z,60.70
2017-10-23T19:37:29.034Z,60.60
2017-10-23T19:39:57.284Z,61.10
2017-10-23T19:42:24.758Z,60.20
2017-10-23T19:44:53.007Z,61.30
2017-10-23T19:47:20.473Z,61.10
2017-10-23T19:49:47.950Z,61.90
2017-10-23T19:52:16.199Z,61.40
2017-10-23T19:54:43.698Z,61.20
2017-10-23T19:57:11.951Z,62.20
2017-10-23T19:59:39.434Z,62.10
2017-10-23T20:02:07.682Z,62.00
2017-10-23T20:04:35.172Z,62.00
2017-10-23T20:07:03.427Z,61.90
2017-10-23T20:09:30.921Z,61.90
2017-10-23T20:11:58.397Z,62.50
2017-10-23T20:14:25.875Z,62.30
2017-10-23T20:16:53.365Z,62.90
2017-10-23T20:19:25.423Z,63.10
2017-10-23T20:21:52.921Z,63.00
2017-10-23T20:24:26.676Z,63.80
2017-10-23T20:26:55.059Z,64.10
2017-10-23T20:29:22.993Z,64.60
2017-10-23T20:31:50.960Z,64.60
2017-10-23T20:34:19.074Z,62.90
2017-10-23T20:36:49.497Z,63.50
2017-10-23T20:39:17.587Z,63.50
2017-10-23T20:41:46.714Z,62.80
2017-10-23T20:44:15.146Z,63.90
2017-10-23T20:46:43.094Z,63.80
2017-10-23T20:49:11.463Z,62.70
2017-10-23T20:51:40.391Z,63.60
2017-10-23T20:54:07.860Z,63.80
2017-10-23T20:56:35.354Z,64.60
2017-10-23T20:59:02.847Z,65.80
2017-10-23T21:01:30.595Z,64.90
2017-10-23T21:03:58.069Z,65.30
2017-10-23T21:06:25.924Z,66.10
2017-10-23T21:08:53.471Z,64.70
2017-10-23T21:11:21.094Z,65.10
2017-10-23T21:13:48.572Z,64.00
2017-10-23T21:16:17.094Z,63.30
2017-10-23T21:18:44.683Z,63.30
2017-10-23T21:21:12.222Z,63.10
2017-10-23T21:23:40.763Z,61.40
2017-10-23T21:26:09.261Z,61.80
2017-10-23T21:28:36.816Z,61.80
2017-10-23T21:31:04.602Z,61.30
2017-10-23T21:33:32.379Z,60.30
2017-10-23T21:36:00.202Z,60.30
2017-10-23T21:38:28.594Z,61.60
2017-10-23T21:40:56.636Z,61.60
2017-10-23T21:43:24.109Z,60.80
2017-10-23T21:45:56.070Z,60.50
2017-10-23T21:48:23.898Z,60.40
2017-10-23T21:50:51.398Z,60.40
2017-10-23T21:53:19.743Z,61.70
2017-10-23T21:55:47.226Z,61.60
2017-10-23T21:58:14.790Z,60.20
2017-10-23T22:00:42.267Z,61.10
2017-10-23T22:03:10.702Z,63.20
2017-10-23T22:05:38.474Z,63.00
2017-10-23T22:08:05.946Z,64.10
2017-10-23T22:10:33.428Z,64.90
2017-10-23T22:13:01.823Z,65.60
2017-10-23T22:15:29.419Z,65.50
2017-10-23T22:17:56.994Z,64.00
2017-10-23T22:20:24.691Z,63.80
2017-10-23T22:22:53.050Z,63.20
2017-10-23T22:25:20.530Z,63.20
2017-10-23T22:27:48.761Z,64.40
2017-10-23T22:30:16.233Z,64.30
2017-10-23T22:32:43.706Z,65.80
2017-10-23T22:35:11.187Z,65.30
2017-10-23T22:37:39.434Z,65.30
2017-10-23T22:40:06.923Z,65.30
2017-10-23T22:42:35.166Z,64.90
2017-10-23T22:45:03.418Z,64.80
2017-10-23T22:47:30.903Z,64.90
2017-10-23T22:49:59.894Z,64.90
2017-10-23T22:52:27.378Z,64.80
2017-10-23T22:54:55.626Z,64.60
2017-10-23T22:57:23.213Z,64.60
2017-10-23T22:59:51.471Z,65.00
2017-10-23T23:02:18.954Z,64.90
2017-10-23T23:04:47.197Z,67.10
2017-10-23T23:07:14.679Z,67.00
2017-10-23T23:09:42.503Z,67.60
2017-10-23T23:12:10.229Z,68.40
2017-10-23T23:14:38.650Z,67.40
2017-10-23T23:17:06.342Z,67.40
2017-10-23T23:19:34.845Z,69.80
2017-10-23T23:22:03.160Z,68.70
2017-10-23T23:24:31.666Z,69.20
2017-10-23T23:26:59.380Z,69.20
2017-10-23T23:29:27.831Z,67.40
2017-10-23T23:31:55.318Z,67.40
2017-10-23T23:34:23.830Z,67.90
2017-10-23T23:36:51.349Z,67.90
2017-10-23T23:39:19.773Z,68.00
2017-10-23T23:41:47.333Z,67.30
2017-10-23T23:44:14.861Z,65.80
2017-10-23T23:46:43.109Z,65.80
2017-10-23T23:49:10.587Z,65.60
2017-10-23T23:51:38.995Z,66.60
2017-10-23T23:54:06.529Z,65.80
2017-10-23T23:56:34.280Z,66.60
2017-10-23T23:59:01.894Z,66.50
